Time;durP1;ratioP1;P1;durP2;ratioP2;P2;SDS_P1;SDS_P2;PMS_P1;PMS_P2;Temp;Humidity;BMP_temperature;BMP_pressure;BME280_temperature;BME280_humidity;BME280_pressure;Samples;Min_cycle;Max_cycle;Signal;HPM_P1;HPM_P2
2022/08/10 00:00:48;;;;;;;3.92;3.50;;;15.30;99.90;;;;;;4986757;28;20124;-86
2022/08/10 00:03:14;;;;;;;4.05;3.65;;;15.30;99.90;;;;;;4987760;28;20128;-85
2022/08/10 00:05:40;;;;;;;4.30;4.00;;;15.30;99.90;;;;;;4992924;28;20033;-86
2022/08/10 00:08:06;;;;;;;4.55;4.22;;;15.30;99.90;;;;;;4985618;28;20033;-84
2022/08/10 00:10:32;;;;;;;5.57;4.05;;;15.30;99.90;;;;;;4985987;28;20084;-84
2022/08/10 00:12:58;;;;;;;4.72;4.15;;;15.20;99.90;;;;;;4990342;28;20037;-84
2022/08/10 00:15:23;;;;;;;5.10;4.50;;;15.20;99.90;;;;;;4994820;28;20120;-84
2022/08/10 00:17:49;;;;;;;4.10;3.70;;;15.20;99.90;;;;;;4981875;28;20780;-84
2022/08/10 00:20:15;;;;;;;3.80;3.50;;;15.20;99.90;;;;;;4984123;28;20033;-84
2022/08/10 00:22:41;;;;;;;4.68;4.25;;;15.20;99.90;;;;;;4989042;28;20073;-85
2022/08/10 00:25:07;;;;;;;4.13;3.72;;;15.10;99.90;;;;;;4989243;28;20095;-85
2022/08/10 00:27:34;;;;;;;6.10;4.13;;;15.10;99.90;;;;;;4983434;28;20069;-84
2022/08/10 00:29:59;;;;;;;4.55;4.20;;;15.10;99.90;;;;;;4986426;28;20034;-84
2022/08/10 00:32:25;;;;;;;6.03;4.55;;;15.10;99.90;;;;;;4995290;28;20079;-84
2022/08/10 00:34:51;;;;;;;4.93;4.53;;;15.10;99.90;;;;;;4998562;28;20516;-84
2022/08/10 00:37:17;;;;;;;4.88;4.28;;;15.00;99.90;;;;;;4990422;28;20041;-85
2022/08/10 00:39:44;;;;;;;5.10;4.50;;;15.00;99.90;;;;;;4988690;28;20037;-86
2022/08/10 00:42:11;;;;;;;5.63;5.00;;;15.00;99.90;;;;;;4993409;28;20068;-84
2022/08/10 00:44:40;;;;;;;5.40;4.90;;;15.00;99.90;;;;;;4989916;28;20569;-84
2022/08/10 00:47:07;;;;;;;5.43;4.75;;;15.00;99.90;;;;;;4985006;28;20030;-85
2022/08/10 00:49:33;;;;;;;5.18;4.72;;;15.00;99.90;;;;;;4989093;28;20403;-86
2022/08/10 00:51:59;;;;;;;7.95;5.15;;;14.90;99.90;;;;;;4995166;28;20094;-86
2022/08/10 00:54:25;;;;;;;5.47;4.93;;;14.90;99.90;;;;;;4994254;28;20049;-84
2022/08/10 00:56:51;;;;;;;5.72;5.15;;;14.90;99.90;;;;;;4997219;28;20049;-84
2022/08/10 00:59:17;;;;;;;5.55;4.57;;;14.90;99.90;;;;;;4988816;28;20039;-85
2022/08/10 01:01:43;;;;;;;5.05;4.65;;;14.80;99.90;;;;;;4999226;28;20041;-84
2022/08/10 01:04:09;;;;;;;6.25;5.00;;;14.80;99.90;;;;;;4993317;28;20048;-86
2022/08/10 01:07:03;;;;;;;5.95;5.35;;;14.80;99.90;;;;;;4985071;28;20109;-84
2022/08/10 01:09:31;;;;;;;5.15;4.70;;;14.80;99.90;;;;;;4994016;28;20038;-83
2022/08/10 01:12:19;;;;;;;5.78;4.80;;;14.70;99.90;;;;;;4992635;28;20508;-86
2022/08/10 01:15:08;;;;;;;5.75;5.22;;;14.70;99.90;;;;;;4999108;28;20536;-86
2022/08/10 01:17:51;;;;;;;6.15;5.55;;;14.70;99.90;;;;;;4992756;28;20432;-85
2022/08/10 01:20:21;;;;;;;5.55;4.93;;;14.70;99.90;;;;;;5003695;28;20038;-84
2022/08/10 01:22:55;;;;;;;6.15;5.55;;;14.70;99.90;;;;;;4998883;28;20037;-84
2022/08/10 01:25:27;;;;;;;7.03;5.28;;;14.70;99.90;;;;;;4992099;28;20037;-85
2022/08/10 01:28:30;;;;;;;5.60;5.10;;;14.70;99.90;;;;;;4991394;28;20106;-84
2022/08/10 01:31:00;;;;;;;7.17;5.07;;;14.60;99.90;;;;;;4995868;28;20033;-84
2022/08/10 01:33:31;;;;;;;6.78;5.38;;;14.60;99.90;;;;;;4993411;28;20046;-87
2022/08/10 01:36:09;;;;;;;6.18;5.43;;;14.60;99.90;;;;;;4994841;28;20048;-85
2022/08/10 01:38:48;;;;;;;6.75;5.50;;;14.60;99.90;;;;;;4993398;28;20127;-84
2022/08/10 01:41:23;;;;;;;6.32;5.60;;;14.50;99.90;;;;;;4991942;28;20438;-84
2022/08/10 01:44:02;;;;;;;7.10;6.40;;;14.50;99.90;;;;;;4986702;28;20083;-84
2022/08/10 01:46:30;;;;;;;6.18;5.65;;;14.50;99.90;;;;;;4993344;28;20521;-84
2022/08/10 01:48:59;;;;;;;6.18;5.57;;;14.50;99.90;;;;;;4986741;28;20075;-84
2022/08/10 01:51:29;;;;;;;7.78;6.40;;;14.50;99.90;;;;;;4991538;28;20495;-84
2022/08/10 01:53:59;;;;;;;6.70;6.10;;;14.50;99.90;;;;;;4996419;28;20045;-84
2022/08/10 01:56:28;;;;;;;8.40;6.20;;;14.40;99.90;;;;;;4987722;28;20744;-84
2022/08/10 01:59:22;;;;;;;7.75;6.85;;;14.50;99.90;;;;;;4981508;28;20615;-85
2022/08/10 02:01:52;;;;;;;7.22;6.53;;;14.50;99.90;;;;;;4989763;28;20041;-86
2022/08/10 02:04:20;;;;;;;7.57;6.80;;;14.40;99.90;;;;;;4997585;28;20038;-84
2022/08/10 02:06:52;;;;;;;10.32;8.02;;;14.40;99.90;;;;;;4991519;28;20048;-86
2022/08/10 02:09:24;;;;;;;9.07;7.25;;;14.50;99.90;;;;;;4992351;28;20410;-86
2022/08/10 02:11:51;;;;;;;9.40;7.88;;;14.50;99.90;;;;;;4993837;28;20072;-84
2022/08/10 02:14:19;;;;;;;9.13;8.23;;;14.50;99.90;;;;;;4998095;28;20163;-86
2022/08/10 02:16:48;;;;;;;8.60;7.70;;;14.50;99.90;;;;;;4993452;28;20045;-85
2022/08/10 02:19:23;;;;;;;10.77;9.63;;;14.50;99.90;;;;;;5002439;28;20042;-84
2022/08/10 02:21:51;;;;;;;9.30;7.93;;;14.40;99.90;;;;;;4989342;28;20522;-86
2022/08/10 02:24:17;;;;;;;10.40;8.60;;;14.40;99.90;;;;;;4989639;28;20033;-85
2022/08/10 02:26:44;;;;;;;8.85;7.35;;;14.40;99.90;;;;;;4994194;28;20079;-86
2022/08/10 02:29:14;;;;;;;8.80;7.32;;;14.40;99.90;;;;;;4990547;28;20037;-84
2022/08/10 02:31:41;;;;;;;9.13;7.35;;;14.40;99.90;;;;;;4998587;28;20507;-84
2022/08/10 02:34:10;;;;;;;8.52;7.63;;;14.40;99.90;;;;;;4992488;28;20045;-84
2022/08/10 02:36:40;;;;;;;11.15;8.63;;;14.40;99.90;;;;;;4997966;28;20041;-84
2022/08/10 02:39:07;;;;;;;10.50;8.05;;;14.40;99.90;;;;;;4989904;28;20049;-84
2022/08/10 02:41:51;;;;;;;9.60;8.60;;;14.40;99.90;;;;;;4987132;28;20412;-86
2022/08/10 02:44:34;;;;;;;10.60;8.50;;;14.40;99.90;;;;;;4991769;28;20308;-86
2022/08/10 02:47:14;;;;;;;9.77;8.27;;;14.30;99.90;;;;;;4986431;28;20044;-84
2022/08/10 02:49:47;;;;;;;9.55;8.43;;;14.30;99.90;;;;;;4996764;28;20179;-86
2022/08/10 02:52:20;;;;;;;10.47;8.77;;;14.30;99.90;;;;;;4992223;28;20087;-84
2022/08/10 02:55:02;;;;;;;11.57;8.20;;;14.40;99.90;;;;;;4984631;28;20045;-86
2022/08/10 02:57:36;;;;;;;9.93;8.35;;;14.30;99.90;;;;;;4995276;28;20038;-85
2022/08/10 03:00:08;;;;;;;8.15;7.35;;;14.30;99.90;;;;;;4995434;28;20043;-85
2022/08/10 03:02:40;;;;;;;9.80;8.80;;;14.30;99.90;;;;;;4991143;28;20034;-85
2022/08/10 03:05:10;;;;;;;13.82;9.05;;;14.30;99.90;;;;;;4988514;28;20034;-85
2022/08/10 03:07:44;;;;;;;10.95;8.23;;;14.30;99.90;;;;;;5005475;28;20033;-85
2022/08/10 03:10:16;;;;;;;10.18;8.63;;;14.30;99.90;;;;;;4998941;28;20249;-85
2022/08/10 03:12:47;;;;;;;10.00;8.70;;;14.30;99.90;;;;;;5013859;28;20345;-84
2022/08/10 03:15:14;;;;;;;11.10;9.32;;;14.20;99.90;;;;;;4996350;28;20048;-84
2022/08/10 03:17:41;;;;;;;10.75;8.95;;;14.20;99.90;;;;;;4994383;28;20045;-85
2022/08/10 03:20:07;;;;;;;13.73;9.63;;;14.20;99.90;;;;;;4992629;28;20037;-85
2022/08/10 03:22:35;;;;;;;10.68;9.20;;;14.20;99.90;;;;;;4989953;28;20120;-86
2022/08/10 03:25:01;;;;;;;12.02;9.32;;;14.20;99.90;;;;;;4992746;28;20038;-85
2022/08/10 03:27:28;;;;;;;10.88;9.57;;;14.20;99.90;;;;;;4996538;28;20033;-85
2022/08/10 03:29:55;;;;;;;11.88;9.48;;;14.20;99.90;;;;;;4991543;28;20053;-85
2022/08/10 03:32:24;;;;;;;10.98;9.52;;;14.20;99.90;;;;;;4992708;28;20041;-85
2022/08/10 03:34:52;;;;;;;12.32;10.30;;;14.20;99.90;;;;;;4990414;28;20099;-85
2022/08/10 03:37:18;;;;;;;10.75;9.60;;;14.10;99.90;;;;;;4982547;28;20033;-85
2022/08/10 03:39:44;;;;;;;10.48;9.32;;;14.10;99.90;;;;;;4995866;28;20041;-85
2022/08/10 03:42:14;;;;;;;15.57;10.27;;;14.10;99.90;;;;;;4995293;28;20037;-85
2022/08/10 03:44:41;;;;;;;13.48;10.07;;;14.10;99.90;;;;;;4993883;28;20041;-85
2022/08/10 03:47:10;;;;;;;11.32;9.88;;;14.10;99.90;;;;;;4986209;28;20049;-87
2022/08/10 03:49:37;;;;;;;13.77;11.23;;;14.10;99.90;;;;;;4996440;28;20041;-86
2022/08/10 03:52:05;;;;;;;14.05;11.27;;;14.10;99.90;;;;;;4996488;28;20041;-85
2022/08/10 03:54:32;;;;;;;15.60;12.43;;;14.10;99.90;;;;;;4997069;28;20037;-87
2022/08/10 03:56:58;;;;;;;15.70;11.30;;;14.10;99.90;;;;;;4997418;28;20026;-84
2022/08/10 03:59:24;;;;;;;13.88;11.23;;;14.10;99.90;;;;;;4989733;28;20038;-86
2022/08/10 04:01:51;;;;;;;13.93;11.45;;;14.10;99.90;;;;;;4991477;28;20561;-87
2022/08/10 04:04:18;;;;;;;12.88;9.90;;;14.10;99.90;;;;;;4995766;28;20196;-87
2022/08/10 04:06:45;;;;;;;16.10;11.38;;;14.10;99.90;;;;;;4985089;28;20060;-85
2022/08/10 04:09:11;;;;;;;10.73;9.60;;;14.00;99.90;;;;;;4994528;28;20033;-87
2022/08/10 04:11:36;;;;;;;15.63;10.63;;;14.00;99.90;;;;;;4991749;28;20033;-84
2022/08/10 04:14:03;;;;;;;15.98;11.02;;;14.00;99.90;;;;;;4994945;28;20048;-87
2022/08/10 04:16:28;;;;;;;11.68;10.07;;;14.00;99.90;;;;;;4996964;28;20033;-85
2022/08/10 04:18:54;;;;;;;12.05;9.57;;;14.00;99.90;;;;;;4991613;28;20044;-85
2022/08/10 04:21:25;;;;;;;11.70;10.13;;;14.00;99.90;;;;;;4992510;28;20124;-86
2022/08/10 04:23:53;;;;;;;12.75;10.23;;;14.00;99.90;;;;;;4997998;28;20518;-82
2022/08/10 04:26:19;;;;;;;12.60;10.07;;;14.00;99.90;;;;;;4994816;28;20054;-82
2022/08/10 04:28:47;;;;;;;14.65;9.77;;;14.00;99.90;;;;;;5013542;28;20049;-81
2022/08/10 04:31:15;;;;;;;15.30;11.38;;;14.00;99.90;;;;;;5016216;28;20033;-82
2022/08/10 04:33:49;;;;;;;14.25;10.55;;;14.00;99.90;;;;;;5001575;28;20041;-81
2022/08/10 04:36:17;;;;;;;;;;;14.00;99.90;;;;;;4998086;28;20034;-83
2022/08/10 04:38:43;;;;;;;11.90;9.50;;;14.00;99.90;;;;;;4994430;28;19928;-84
2022/08/10 04:41:11;;;;;;;13.50;10.75;;;14.00;99.90;;;;;;5001292;28;20044;-81
2022/08/10 04:43:37;;;;;;;15.07;11.20;;;14.00;99.90;;;;;;5003494;28;20041;-81
2022/08/10 04:46:03;;;;;;;12.20;10.02;;;14.00;99.90;;;;;;5000531;28;20038;-80
2022/08/10 04:48:29;;;;;;;12.13;10.00;;;14.00;99.90;;;;;;4998903;28;20072;-81
2022/08/10 04:50:55;;;;;;;15.82;11.05;;;14.00;99.90;;;;;;5005328;28;20128;-81
2022/08/10 04:53:21;;;;;;;11.52;10.20;;;14.00;99.90;;;;;;4986426;28;20568;-80
2022/08/10 04:55:47;;;;;;;16.75;11.73;;;14.10;99.90;;;;;;4993585;28;20068;-82
2022/08/10 04:58:13;;;;;;;14.23;11.23;;;14.10;99.90;;;;;;4991134;28;20033;-81
2022/08/10 05:00:39;;;;;;;13.27;10.35;;;14.10;99.90;;;;;;5012670;28;20044;-81
2022/08/10 05:03:05;;;;;;;13.93;11.15;;;14.10;99.90;;;;;;4986929;28;20084;-81
2022/08/10 05:05:30;;;;;;;15.38;10.50;;;14.10;99.90;;;;;;4996225;28;20037;-81
2022/08/10 05:07:56;;;;;;;13.63;11.77;;;14.10;99.90;;;;;;4992067;28;20570;-81
2022/08/10 05:10:22;;;;;;;14.13;12.02;;;14.10;99.90;;;;;;4991323;28;20045;-81
2022/08/10 05:12:48;;;;;;;15.98;11.55;;;14.10;99.90;;;;;;4987566;28;20053;-81
2022/08/10 05:15:16;;;;;;;16.20;12.10;;;14.20;99.90;;;;;;4996834;28;20037;-82
2022/08/10 05:17:43;;;;;;;15.40;11.73;;;14.20;99.90;;;;;;4995014;28;20187;-82
2022/08/10 05:20:10;;;;;;;15.57;12.00;;;14.20;99.90;;;;;;4987314;28;20087;-81
2022/08/10 05:22:39;;;;;;;14.57;10.77;;;14.30;99.90;;;;;;4987943;28;20055;-82
2022/08/10 05:25:08;;;;;;;16.88;13.43;;;14.30;99.90;;;;;;5000070;28;20040;-83
2022/08/10 05:27:33;;;;;;;20.48;13.32;;;14.30;99.90;;;;;;4987665;28;20095;-83
2022/08/10 05:29:59;;;;;;;13.52;11.15;;;14.40;99.90;;;;;;4984379;28;20442;-89
2022/08/10 05:32:25;;;;;;;19.40;13.15;;;14.50;99.90;;;;;;4981447;28;20898;-88
2022/08/10 05:34:51;;;;;;;15.93;11.98;;;14.50;99.90;;;;;;4991926;28;20041;-88
2022/08/10 05:37:18;;;;;;;17.65;12.70;;;14.50;99.90;;;;;;4992810;28;20068;-88
2022/08/10 05:39:46;;;;;;;15.27;12.02;;;14.60;99.90;;;;;;4986727;28;20072;-88
2022/08/10 05:42:12;;;;;;;16.70;12.02;;;14.70;99.90;;;;;;4995727;28;20037;-89
2022/08/10 05:44:38;;;;;;;14.60;11.57;;;14.70;99.90;;;;;;4995045;28;20049;-88
2022/08/10 05:47:05;;;;;;;13.88;11.25;;;14.80;99.90;;;;;;5012765;28;20395;-88
2022/08/10 05:49:31;;;;;;;16.02;12.57;;;14.90;99.90;;;;;;4995748;28;20042;-87
2022/08/10 05:51:57;;;;;;;19.63;13.60;;;14.90;99.90;;;;;;4994473;28;20033;-88
2022/08/10 05:54:24;;;;;;;15.95;12.50;;;15.00;99.90;;;;;;5010186;28;20042;-87
2022/08/10 05:56:51;;;;;;;15.18;12.10;;;15.00;99.90;;;;;;4992103;28;20100;-86
2022/08/10 05:59:17;;;;;;;16.00;11.80;;;15.20;99.90;;;;;;4996311;28;20033;-86
2022/08/10 06:01:45;;;;;;;12.10;10.80;;;15.20;99.90;;;;;;4993419;28;20041;-87
2022/08/10 06:04:18;;;;;;;14.00;11.80;;;15.30;99.90;;;;;;4998030;28;20080;-87
2022/08/10 06:06:46;;;;;;;15.30;11.90;;;15.40;99.90;;;;;;4990864;28;20095;-86
2022/08/10 06:09:14;;;;;;;15.80;11.38;;;15.50;99.90;;;;;;4988573;28;20131;-86
2022/08/10 06:11:41;;;;;;;16.52;11.90;;;15.60;99.90;;;;;;4988205;28;20044;-87
2022/08/10 06:16:53;;;;;;;15.25;10.88;;;15.70;99.90;;;;;;5008364;28;20068;-87
2022/08/10 06:19:19;;;;;;;14.38;10.60;;;15.80;99.90;;;;;;4991549;28;20042;-87
2022/08/10 06:21:46;;;;;;;13.80;10.30;;;15.90;99.90;;;;;;5012641;28;20045;-86
2022/08/10 06:24:16;;;;;;;12.32;10.50;;;16.00;99.90;;;;;;4989977;28;20116;-86
2022/08/10 06:26:43;;;;;;;12.32;11.02;;;16.00;99.90;;;;;;5011025;28;20045;-87
2022/08/10 06:29:14;;;;;;;12.40;10.60;;;16.10;99.90;;;;;;4991281;28;20065;-86
2022/08/10 06:31:43;;;;;;;11.48;10.27;;;16.20;99.90;;;;;;4995934;28;20046;-86
2022/08/10 06:34:10;;;;;;;14.93;10.60;;;16.30;99.90;;;;;;4995228;28;20033;-86
2022/08/10 06:36:38;;;;;;;12.60;10.10;;;16.30;99.90;;;;;;4990398;28;20030;-86
2022/08/10 06:39:05;;;;;;;13.68;10.63;;;16.40;99.90;;;;;;5012284;28;20038;-86
2022/08/10 06:41:34;;;;;;;13.00;9.15;;;16.50;99.90;;;;;;4993344;28;20451;-87
2022/08/10 06:44:08;;;;;;;9.50;8.50;;;16.60;99.90;;;;;;4990630;28;20068;-87
2022/08/10 06:46:38;;;;;;;10.95;9.65;;;16.60;99.90;;;;;;5013264;28;20044;-87
2022/08/10 06:49:07;;;;;;;10.20;9.20;;;16.70;99.90;;;;;;4991867;28;20049;-87
2022/08/10 06:51:35;;;;;;;11.90;9.30;;;16.80;99.90;;;;;;4987153;28;20085;-85
2022/08/10 06:54:05;;;;;;;8.88;8.07;;;16.80;99.90;;;;;;5013546;28;20124;-86
2022/08/10 06:56:34;;;;;;;9.88;8.63;;;16.90;99.90;;;;;;4985673;28;20125;-87
2022/08/10 06:59:04;;;;;;;10.15;8.48;;;17.00;99.90;;;;;;4994200;28;20040;-86
2022/08/10 07:01:34;;;;;;;9.65;8.63;;;17.10;99.90;;;;;;4985395;28;20044;-86
2022/08/10 07:04:10;;;;;;;10.20;7.47;;;17.10;99.90;;;;;;4999398;28;20049;-86
2022/08/10 07:06:42;;;;;;;9.63;8.68;;;17.20;99.90;;;;;;4996038;28;20435;-85
2022/08/10 07:09:10;;;;;;;8.90;7.72;;;17.30;99.90;;;;;;4996473;28;20154;-87
2022/08/10 07:11:37;;;;;;;8.63;7.68;;;17.40;99.90;;;;;;4990225;28;20514;-87
2022/08/10 07:14:05;;;;;;;11.52;7.82;;;17.50;99.90;;;;;;4987239;28;20038;-87
2022/08/10 07:16:33;;;;;;;11.32;8.05;;;17.60;99.90;;;;;;4991443;28;20073;-86
2022/08/10 07:19:01;;;;;;;9.80;8.25;;;17.70;99.90;;;;;;4987554;28;20136;-86
2022/08/10 07:21:29;;;;;;;8.35;7.45;;;17.80;99.90;;;;;;4996766;28;20040;-87
2022/08/10 07:23:57;;;;;;;8.48;7.47;;;17.90;99.90;;;;;;4992268;28;20077;-87
2022/08/10 07:26:24;;;;;;;8.82;7.53;;;18.00;99.90;;;;;;4991517;28;20049;-87
2022/08/10 07:28:51;;;;;;;8.57;6.80;;;18.20;99.90;;;;;;4994692;28;20120;-87
2022/08/10 07:31:20;;;;;;;9.02;7.90;;;18.30;99.90;;;;;;4988875;28;20374;-87
2022/08/10 07:33:48;;;;;;;10.43;7.53;;;18.50;99.90;;;;;;4996736;28;20084;-87
2022/08/10 07:36:18;;;;;;;7.47;6.70;;;18.70;99.90;;;;;;4998080;28;20057;-87
2022/08/10 07:38:44;;;;;;;13.73;6.40;;;18.90;99.90;;;;;;4997556;28;20100;-87
2022/08/10 07:41:11;;;;;;;7.95;6.43;;;19.10;99.90;;;;;;4982753;28;20038;-88
2022/08/10 07:43:38;;;;;;;7.47;6.55;;;19.30;99.90;;;;;;4984956;28;20052;-87
2022/08/10 07:46:08;;;;;;;7.90;5.95;;;19.50;99.90;;;;;;4997088;28;20049;-87
2022/08/10 07:48:47;;;;;;;7.88;6.30;;;19.70;99.90;;;;;;4997624;28;20036;-89
2022/08/10 07:51:16;;;;;;;8.07;6.22;;;19.90;99.90;;;;;;5011103;28;20403;-87
2022/08/10 07:53:51;;;;;;;7.78;5.32;;;20.10;99.90;;;;;;4982558;28;20438;-88
2022/08/10 07:56:24;;;;;;;8.10;6.07;;;20.30;99.90;;;;;;4983500;28;20062;-89
2022/08/10 07:58:55;;;;;;;6.38;4.93;;;20.50;99.90;;;;;;4982865;28;20077;-89
2022/08/10 08:01:30;;;;;;;5.30;4.72;;;20.80;99.90;;;;;;4989384;28;20160;-89
2022/08/10 08:03:59;;;;;;;6.05;5.07;;;21.00;99.90;;;;;;4987547;28;20496;-92
2022/08/10 08:06:27;;;;;;;6.07;5.00;;;21.20;99.90;;;;;;4994826;28;20403;-88
2022/08/10 08:08:53;;;;;;;5.75;4.78;;;21.40;99.90;;;;;;4996454;28;20048;-88
2022/08/10 08:11:20;;;;;;;5.68;4.72;;;21.50;99.90;;;;;;5010984;28;20033;-94
2022/08/10 08:13:47;;;;;;;6.40;5.07;;;21.70;99.90;;;;;;5012416;28;20033;-94
2022/08/10 08:16:14;;;;;;;5.90;5.13;;;21.80;99.90;;;;;;5015669;28;20038;-92
2022/08/10 08:18:42;;;;;;;10.63;5.15;;;22.00;99.90;;;;;;5016483;28;20047;-91
2022/08/10 08:21:08;;;;;;;4.95;4.20;;;22.20;99.90;;;;;;5021866;28;20041;-92
2022/08/10 08:23:37;;;;;;;5.97;4.78;;;22.30;99.90;;;;;;5009296;28;20038;-91
2022/08/10 08:26:03;;;;;;;4.72;4.22;;;22.60;99.90;;;;;;4987914;28;20042;-91
2022/08/10 08:28:32;;;;;;;4.68;4.22;;;22.90;99.90;;;;;;4987047;28;20069;-90
2022/08/10 08:30:59;;;;;;;5.38;4.88;;;23.10;99.90;;;;;;4996516;28;20037;-90
2022/08/10 08:33:25;;;;;;;4.40;3.83;;;23.30;99.90;;;;;;4995510;28;20037;-89
2022/08/10 08:35:52;;;;;;;5.63;5.03;;;23.50;99.90;;;;;;4995919;28;20147;-88
2022/08/10 08:38:18;;;;;;;5.40;3.95;;;23.50;99.90;;;;;;5002013;28;20038;-89
2022/08/10 08:40:56;;;;;;;4.25;3.30;;;23.70;99.90;;;;;;4989874;28;20037;-91
2022/08/10 08:43:33;;;;;;;4.18;3.78;;;23.70;99.90;;;;;;4987143;28;20095;-90
2022/08/10 08:46:18;;;;;;;7.32;4.10;;;23.90;99.90;;;;;;4986145;28;20052;-89
2022/08/10 08:48:59;;;;;;;5.13;3.97;;;24.20;99.90;;;;;;4994260;28;20041;-90
2022/08/10 08:51:31;;;;;;;4.18;3.70;;;24.40;99.90;;;;;;4994661;28;20049;-90
2022/08/10 08:54:22;;;;;;;4.75;3.85;;;24.50;99.90;;;;;;4996295;28;20030;-88
2022/08/10 08:57:16;;;;;;;4.05;3.30;;;24.70;99.90;;;;;;4992008;28;20045;-88
2022/08/10 09:00:18;;;;;;;5.00;3.17;;;25.00;99.90;;;;;;4994391;28;20514;-89
2022/08/10 09:03:07;;;;;;;4.43;3.20;;;25.30;99.90;;;;;;4988556;28;20132;-89
2022/08/10 09:06:05;;;;;;;4.55;3.40;;;25.50;99.90;;;;;;4989700;28;20045;-88
2022/08/10 09:08:52;;;;;;;3.28;2.92;;;25.70;99.90;;;;;;4985461;28;20068;-89
2022/08/10 09:11:18;;;;;;;3.28;2.97;;;26.00;99.90;;;;;;4989663;28;20504;-89
2022/08/10 09:13:52;;;;;;;4.55;3.50;;;26.10;99.90;;;;;;5008036;28;20091;-90
2022/08/10 09:16:50;;;;;;;5.18;3.25;;;26.30;99.90;;;;;;4990324;28;20072;-89
2022/08/10 09:19:36;;;;;;;3.20;2.90;;;26.50;98.50;;;;;;4988671;28;20042;-89
2022/08/10 09:22:15;;;;;;;4.30;2.72;;;26.70;99.00;;;;;;5012623;28;20192;-90
2022/08/10 09:24:48;;;;;;;3.75;2.35;;;27.00;98.80;;;;;;4994613;28;20041;-89
2022/08/10 09:27:38;;;;;;;4.40;2.95;;;27.40;99.30;;;;;;4988340;28;20124;-89
2022/08/10 09:30:06;;;;;;;4.20;2.30;;;27.60;91.40;;;;;;4996689;28;20048;-89
2022/08/10 09:32:38;;;;;;;4.57;2.30;;;27.60;96.20;;;;;;4994063;28;20042;-90
2022/08/10 09:35:28;;;;;;;4.40;2.65;;;27.80;94.60;;;;;;4989965;28;20520;-89
2022/08/10 09:38:11;;;;;;;3.80;1.98;;;27.90;92.40;;;;;;4983544;28;20508;-89
2022/08/10 09:40:41;;;;;;;3.55;2.30;;;28.20;90.50;;;;;;5010339;28;20490;-89
2022/08/10 09:43:19;;;;;;;3.17;2.20;;;28.30;92.00;;;;;;4999989;28;20042;-89
2022/08/10 09:46:16;;;;;;;2.67;2.47;;;28.40;87.00;;;;;;4988746;28;20077;-89
2022/08/10 09:48:59;;;;;;;3.78;2.08;;;28.60;77.80;;;;;;5011798;28;20048;-91
2022/08/10 09:51:38;;;;;;;2.97;1.98;;;28.90;75.10;;;;;;4994573;28;20072;-90
2022/08/10 09:54:41;;;;;;;2.80;2.00;;;29.10;76.20;;;;;;4992550;28;20407;-90
2022/08/10 09:57:26;;;;;;;;;;;29.20;63.30;;;;;;4999619;28;20052;-90
2022/08/10 10:00:09;;;;;;;3.72;2.22;;;29.20;57.70;;;;;;4999717;28;20399;-92
2022/08/10 10:02:51;;;;;;;4.55;1.90;;;29.30;71.50;;;;;;4987335;28;20076;-90
2022/08/10 10:05:45;;;;;;;3.90;2.00;;;29.70;63.50;;;;;;4992803;28;20041;-89
2022/08/10 10:08:36;;;;;;;4.05;2.15;;;29.90;64.10;;;;;;4988810;28;20044;-90
2022/08/10 10:11:15;;;;;;;3.28;2.10;;;29.90;54.20;;;;;;4988308;28;20059;-90
2022/08/10 10:13:53;;;;;;;3.50;2.10;;;30.00;58.30;;;;;;4986683;28;20045;-90
2022/08/10 10:16:53;;;;;;;2.13;1.92;;;30.00;56.80;;;;;;5008736;28;20057;-90
2022/08/10 10:19:43;;;;;;;2.65;1.95;;;30.10;57.00;;;;;;4992250;28;20462;-91
2022/08/10 10:23:12;;;;;;;3.63;1.80;;;30.20;52.20;;;;;;4998562;28;20041;-89
2022/08/10 10:25:44;;;;;;;2.92;1.83;;;30.30;54.30;;;;;;4954031;28;20604;-89
2022/08/10 10:28:22;;;;;;;3.38;1.85;;;30.50;56.20;;;;;;4988159;28;20436;-92
2022/08/10 10:31:05;;;;;;;1.75;1.65;;;30.60;54.10;;;;;;4997794;28;20037;-90
2022/08/10 10:34:16;;;;;;;2.70;1.60;;;30.70;53.60;;;;;;4993902;28;20068;-90
2022/08/10 10:36:44;;;;;;;3.22;2.00;;;30.90;51.70;;;;;;4981102;28;20504;-90
2022/08/10 10:39:15;;;;;;;2.40;1.65;;;31.00;52.40;;;;;;4988813;28;20041;-91
2022/08/10 10:42:07;;;;;;;2.85;1.90;;;31.20;51.70;;;;;;4998703;28;20099;-90
2022/08/10 10:44:59;;;;;;;2.40;1.88;;;31.50;50.50;;;;;;5012227;28;20045;-90
2022/08/10 10:47:51;;;;;;;2.10;1.85;;;31.40;47.80;;;;;;4998035;28;20183;-89
2022/08/10 10:50:55;;;;;;;3.15;1.70;;;31.40;49.50;;;;;;5013754;28;20389;-89
2022/08/10 10:53:39;;;;;;;2.08;1.58;;;31.40;49.10;;;;;;4999421;28;20043;-89
2022/08/10 10:56:29;;;;;;;3.33;1.65;;;31.70;48.30;;;;;;4995489;28;20065;-90
2022/08/10 10:59:23;;;;;;;2.67;1.63;;;31.70;48.50;;;;;;5011874;28;20038;-89
2022/08/10 11:02:37;;;;;;;2.50;1.60;;;31.70;46.40;;;;;;4989556;28;20045;-89
2022/08/10 11:05:46;;;;;;;3.65;1.52;;;31.70;46.00;;;;;;4898981;29;20499;-88
2022/08/10 11:08:21;;;;;;;4.82;2.00;;;31.90;44.80;;;;;;4878085;29;20084;-90
2022/08/10 11:11:01;;;;;;;2.10;1.20;;;32.20;47.30;;;;;;4986156;28;20038;-91
2022/08/10 11:13:36;;;;;;;1.17;1.08;;;32.40;44.50;;;;;;4993909;28;20387;-89
2022/08/10 11:16:11;;;;;;;1.85;1.10;;;32.50;44.10;;;;;;4987399;28;20041;-89
2022/08/10 11:18:49;;;;;;;3.28;1.50;;;32.50;42.90;;;;;;4988730;28;20051;-89
2022/08/10 11:21:42;;;;;;;3.22;1.52;;;32.50;43.90;;;;;;4985878;28;20065;-90
2022/08/10 11:24:13;;;;;;;1.55;1.38;;;32.30;43.20;;;;;;5013834;28;20038;-91
2022/08/10 11:27:34;;;;;;;3.72;1.50;;;32.40;44.40;;;;;;5005382;28;20128;-89
2022/08/10 11:30:17;;;;;;;1.50;1.40;;;32.80;44.00;;;;;;4974086;28;20049;-89
2022/08/10 11:33:20;;;;;;;2.15;1.50;;;32.90;44.10;;;;;;5013315;28;20087;-89
2022/08/10 11:36:09;;;;;;;1.90;1.02;;;32.90;41.90;;;;;;4989868;28;20034;-90
2022/08/10 11:38:45;;;;;;;1.60;1.50;;;33.00;42.80;;;;;;5006260;28;20034;-90
2022/08/10 11:41:44;;;;;;;2.28;1.30;;;33.40;41.30;;;;;;4997572;28;20093;-90
2022/08/10 11:44:31;;;;;;;3.40;1.30;;;33.70;41.70;;;;;;5010040;28;20041;-90
2022/08/10 11:47:09;;;;;;;1.65;1.50;;;33.70;42.90;;;;;;4982486;28;20069;-90
2022/08/10 11:50:04;;;;;;;5.30;1.50;;;33.80;42.30;;;;;;4997790;28;20044;-90
2022/08/10 11:52:33;;;;;;;4.20;1.55;;;33.80;41.90;;;;;;4988421;28;20515;-89
2022/08/10 11:55:09;;;;;;;1.75;1.38;;;33.80;42.20;;;;;;4989162;28;20408;-89
2022/08/10 11:57:36;;;;;;;4.07;1.50;;;33.70;41.10;;;;;;4993422;28;20038;-89
2022/08/10 12:00:06;;;;;;;1.45;1.30;;;33.90;40.70;;;;;;4998705;28;20056;-89
2022/08/10 12:02:38;;;;;;;2.75;1.50;;;34.10;41.00;;;;;;4989460;28;20532;-90
2022/08/10 12:05:10;;;;;;;2.67;1.30;;;34.20;41.30;;;;;;4997792;28;20069;-90
2022/08/10 12:07:50;;;;;;;2.90;1.50;;;34.30;40.70;;;;;;4982239;28;20037;-91
2022/08/10 12:10:19;;;;;;;1.42;1.10;;;34.70;40.30;;;;;;4996083;28;20061;-90
2022/08/10 12:12:53;;;;;;;3.35;1.40;;;35.00;39.60;;;;;;5000600;28;20030;-89
2022/08/10 12:15:34;;;;;;;1.60;1.45;;;35.40;39.80;;;;;;4985280;28;20052;-89
2022/08/10 12:18:09;;;;;;;4.30;1.52;;;35.30;38.10;;;;;;4994160;28;20045;-90
2022/08/10 12:20:37;;;;;;;2.17;1.33;;;35.00;37.70;;;;;;5010040;28;20121;-90
2022/08/10 12:23:13;;;;;;;3.53;1.20;;;35.10;38.80;;;;;;4985419;28;20103;-92
2022/08/10 12:25:49;;;;;;;2.20;1.40;;;35.20;39.80;;;;;;4984501;28;20037;-89
2022/08/10 12:28:43;;;;;;;3.95;1.52;;;35.40;37.70;;;;;;5009611;28;20042;-89
2022/08/10 12:31:11;;;;;;;3.42;1.50;;;35.80;38.80;;;;;;4994673;28;20041;-89
2022/08/10 12:33:49;;;;;;;2.05;1.23;;;36.10;38.90;;;;;;4988402;28;20040;-89
2022/08/10 12:36:30;;;;;;;2.47;1.27;;;36.20;38.10;;;;;;4983201;28;20049;-89
2022/08/10 12:38:59;;;;;;;1.73;1.50;;;36.30;38.10;;;;;;4996236;28;20091;-89
2022/08/10 12:41:32;;;;;;;2.15;1.20;;;36.10;37.20;;;;;;4986656;28;20050;-89
2022/08/10 12:44:05;;;;;;;2.22;1.33;;;36.10;35.90;;;;;;5026658;28;20037;-90
2022/08/10 12:46:38;;;;;;;2.13;1.20;;;36.00;37.10;;;;;;4987908;28;20104;-89
2022/08/10 12:49:22;;;;;;;1.40;1.30;;;35.60;37.10;;;;;;4994829;28;20037;-89
2022/08/10 12:51:57;;;;;;;2.65;1.30;;;36.10;37.80;;;;;;4990195;28;20495;-90
2022/08/10 12:54:25;;;;;;;2.80;1.27;;;36.20;36.90;;;;;;4994116;28;20045;-89
2022/08/10 12:57:14;;;;;;;1.25;1.15;;;36.70;37.40;;;;;;4995790;28;20111;-90
2022/08/10 12:59:47;;;;;;;2.30;1.10;;;37.20;35.30;;;;;;4994150;28;20101;-89
2022/08/10 13:02:34;;;;;;;2.42;1.40;;;37.40;34.90;;;;;;4991916;28;20050;-89
2022/08/10 13:05:03;;;;;;;1.42;1.13;;;37.40;33.80;;;;;;4985174;28;20518;-90
2022/08/10 13:07:35;;;;;;;2.50;1.40;;;37.10;35.00;;;;;;4993273;28;20038;-89
2022/08/10 13:10:03;;;;;;;;;;;37.20;34.80;;;;;;4997694;28;20075;-89
2022/08/10 13:12:32;;;;;;;4.55;1.50;;;36.80;35.30;;;;;;4987993;28;19944;-90
2022/08/10 13:15:28;;;;;;;1.88;1.50;;;36.90;36.80;;;;;;4997197;28;20045;-89
2022/08/10 13:17:56;;;;;;;3.53;1.30;;;37.10;34.70;;;;;;5003294;28;20045;-90